KPGD/PGD METAR and TAF weather

Enter ICAO airport designator
Station Type Date Time Source
KPGD METAR 2019/06/17 03:53 UTC NOAA

KPGD 170353Z AUTO 08005KT 10SM CLR 24/23 A3004 RMK AO2 SLP174 T02390228


Station Type Date Time Source
KPGD Decoded METAR 2019/06/17 03:53 UTC NOAA

PUNTA GORDA CHARLOTTE COUNTY, FL, United States (KPGD) 26-55N 82-00W 7M
Jun 16, 2019 - 11:53 PM EDT / 2019.06.17 0353 UTC
Wind: from the E (080 degrees) at 6 MPH (5 KT):0
Visibility: 10 mile(s):0
Sky conditions: clear
Temperature: 75.0 F (23.9 C)
Dew Point: 73.0 F (22.8 C)
Relative Humidity: 93%
Pressure (altimeter): 30.04 in. Hg (1017 hPa)
ob: KPGD 170353Z AUTO 08005KT 10SM CLR 24/23 A3004 RMK AO2 SLP174 T02390228
cycle: 4

Station Type Date Time Source
KPGD TAF 2019/06/16 18:24 UTC NOAA

TAF KPGD 161721Z 1618/1718 20006KT P6SM RA VCTS SCT015 BKN035CB BKN250
FM170300 10004KT P6SM SCT025 OVC250
FM171500 14008KT P6SM VCSH SCT020 OVC100

Example: see airport list